Terminal Aerodrome Forecast
Issued by NWS

Home | Current Version | Previous Version | Text Only | Print | Product List | Glossary On
Versions: 1 2 3 4 5 6 7 8 9 10 11 12 13 14 15 16 17 18 19 20 21 22 23
000
FTUS43 KLSX 251600 AAC
TAFCPS
TAF AMD
KCPS 251600Z 2516/2612 VRB03KT P6SM -RA OVC012
     FM251900 32011KT 4SM -RA BR OVC008
     FM260000 35015G25KT 2SM -SN BR OVC006
     FM260200 33012KT P6SM OVC012
     FM261000 32006KT P6SM SCT010=

USA.gov is the U.S. government's official web portal to all federal, state and local government web resources and services.